Time;durP1;ratioP1;P1;durP2;ratioP2;P2;SDS_P1;SDS_P2;PMS_P1;PMS_P2;Temp;Humidity;BMP_temperature;BMP_pressure;BME280_temperature;BME280_humidity;BME280_pressure;Samples;Min_cycle;Max_cycle;Signal;HPM_P1;HPM_P2
2024/01/29 00:02:25;;;;;;;3.88;1.67;;;;;;;;;;5118283;27;20172;-78
2024/01/29 00:04:51;;;;;;;2.17;1.50;;;;;;;;;;5136232;27;20104;-78
2024/01/29 00:07:17;;;;;;;3.35;1.20;;;;;;;;;;5135967;27;20039;-79
2024/01/29 00:09:45;;;;;;;4.15;1.73;;;;;;;;;;5136134;27;20479;-78
2024/01/29 00:12:11;;;;;;;2.92;1.63;;;;;;;;;;5117933;27;20495;-78
2024/01/29 00:14:37;;;;;;;1.90;1.45;;;;;;;;;;5135979;27;20046;-78
2024/01/29 00:17:03;;;;;;;3.50;1.80;;;;;;;;;;5117776;27;20050;-78
2024/01/29 00:19:29;;;;;;;2.53;1.88;;;;;;;;;;5135784;27;20058;-78
2024/01/29 00:21:55;;;;;;;3.97;2.08;;;;;;;;;;5117742;27;20057;-78
2024/01/29 00:24:21;;;;;;;3.75;1.88;;;;;;;;;;5117791;27;20406;-78
2024/01/29 00:26:50;;;;;;;3.53;1.95;;;;;;;;;;5135785;27;20357;-78
2024/01/29 00:29:16;;;;;;;3.20;1.80;;;;;;;;;;5135575;27;20050;-78
2024/01/29 00:31:42;;;;;;;2.45;1.40;;;;;;;;;;5135682;27;20082;-78
2024/01/29 00:34:09;;;;;;;3.42;1.85;;;;;;;;;;5117522;27;20524;-78
2024/01/29 00:36:35;;;;;;;2.72;1.65;;;;;;;;;;5135030;27;20060;-78
2024/01/29 00:39:06;;;;;;;1.92;1.70;;;;;;;;;;5117268;27;20471;-78
2024/01/29 00:41:33;;;;;;;4.28;2.00;;;;;;;;;;5117167;27;20069;-78
2024/01/29 00:43:59;;;;;;;3.95;1.63;;;;;;;;;;5117406;27;20046;-78
2024/01/29 00:46:25;;;;;;;2.85;1.83;;;;;;;;;;5135197;27;20086;-78
2024/01/29 00:48:51;;;;;;;4.72;1.88;;;;;;;;;;5117216;27;20096;-78
2024/01/29 00:51:17;;;;;;;1.95;1.75;;;;;;;;;;5117251;27;20050;-78
2024/01/29 00:53:43;;;;;;;3.88;1.63;;;;;;;;;;5135301;27;20047;-78
2024/01/29 00:56:09;;;;;;;2.50;1.98;;;;;;;;;;5135035;27;20064;-78
2024/01/29 00:58:35;;;;;;;2.22;1.85;;;;;;;;;;5117152;27;20039;-78
2024/01/29 01:01:01;;;;;;;3.92;2.33;;;;;;;;;;5116867;27;20502;-78
2024/01/29 01:03:27;;;;;;;2.70;1.70;;;;;;;;;;5117006;27;20047;-78
2024/01/29 01:05:53;;;;;;;3.47;2.15;;;;;;;;;;5134984;27;20073;-78
2024/01/29 01:08:19;;;;;;;3.63;2.22;;;;;;;;;;5116206;27;20043;-78
2024/01/29 01:10:45;;;;;;;2.78;1.55;;;;;;;;;;5116956;27;20379;-78
2024/01/29 01:13:11;;;;;;;2.75;1.80;;;;;;;;;;5117006;27;20050;-78
2024/01/29 01:15:37;;;;;;;2.85;2.17;;;;;;;;;;5116866;27;20138;-78
2024/01/29 01:18:04;;;;;;;5.18;1.98;;;;;;;;;;5134899;27;20483;-78
2024/01/29 01:20:30;;;;;;;2.47;1.42;;;;;;;;;;5134921;27;20054;-78
2024/01/29 01:22:56;;;;;;;2.92;1.60;;;;;;;;;;5116698;27;20126;-78
2024/01/29 01:25:22;;;;;;;5.50;2.00;;;;;;;;;;5116207;28;20077;-78
2024/01/29 01:27:53;;;;;;;4.13;1.77;;;;;;;;;;5116344;27;20574;-78
2024/01/29 01:30:20;;;;;;;3.38;1.92;;;;;;;;;;5116743;27;20475;-78
2024/01/29 01:32:46;;;;;;;6.32;2.08;;;;;;;;;;5134763;27;20055;-78
2024/01/29 01:35:12;;;;;;;3.10;1.90;;;;;;;;;;5135175;28;20058;-78
2024/01/29 01:37:38;;;;;;;6.15;1.95;;;;;;;;;;5115629;28;20440;-79
2024/01/29 01:40:05;;;;;;;3.05;1.88;;;;;;;;;;5116547;28;20443;-78
2024/01/29 01:42:31;;;;;;;3.72;2.40;;;;;;;;;;5116355;28;20074;-78
2024/01/29 01:44:57;;;;;;;2.85;2.38;;;;;;;;;;5099576;28;20051;-78
2024/01/29 01:47:23;;;;;;;2.33;1.88;;;;;;;;;;5116230;28;20040;-79
2024/01/29 01:49:50;;;;;;;2.42;2.20;;;;;;;;;;5116555;28;20047;-78
2024/01/29 01:52:17;;;;;;;4.53;2.25;;;;;;;;;;5116389;28;20096;-78
2024/01/29 01:54:43;;;;;;;3.58;2.17;;;;;;;;;;5134177;28;20407;-79
2024/01/29 01:57:10;;;;;;;3.00;2.15;;;;;;;;;;5116655;28;20159;-78
2024/01/29 01:59:39;;;;;;;3.28;2.15;;;;;;;;;;5134522;28;20054;-79
2024/01/29 02:02:05;;;;;;;4.53;2.42;;;;;;;;;;5116398;28;20058;-78
2024/01/29 02:04:31;;;;;;;2.70;2.13;;;;;;;;;;5134382;28;20134;-78
2024/01/29 02:06:58;;;;;;;5.03;2.63;;;;;;;;;;5115551;28;20213;-79
2024/01/29 02:09:24;;;;;;;3.47;2.17;;;;;;;;;;5134114;28;20039;-79
2024/01/29 02:11:50;;;;;;;3.28;2.42;;;;;;;;;;5134366;28;20050;-79
2024/01/29 02:14:17;;;;;;;2.03;1.83;;;;;;;;;;5134250;28;20043;-79
2024/01/29 02:16:43;;;;;;;5.63;2.58;;;;;;;;;;5116227;28;20436;-79
2024/01/29 02:19:16;;;;;;;3.28;2.53;;;;;;;;;;5134028;28;20050;-79
2024/01/29 02:21:43;;;;;;;3.90;2.58;;;;;;;;;;5116066;28;20096;-78
2024/01/29 02:24:09;;;;;;;4.05;2.30;;;;;;;;;;5115557;28;20051;-79
2024/01/29 02:26:35;;;;;;;4.45;2.30;;;;;;;;;;5133714;28;20243;-79
2024/01/29 02:29:01;;;;;;;2.83;2.15;;;;;;;;;;5134172;28;20047;-78
2024/01/29 02:31:27;;;;;;;2.75;2.33;;;;;;;;;;5134258;28;20130;-79
2024/01/29 02:33:53;;;;;;;3.70;2.03;;;;;;;;;;5134171;28;20122;-78
2024/01/29 02:36:19;;;;;;;4.07;2.60;;;;;;;;;;5134056;28;20147;-78
2024/01/29 02:38:45;;;;;;;2.33;2.13;;;;;;;;;;5098562;28;20440;-78
2024/01/29 02:41:11;;;;;;;3.80;2.85;;;;;;;;;;5115965;28;20065;-78
2024/01/29 02:43:37;;;;;;;3.10;2.58;;;;;;;;;;5115911;28;20091;-79
2024/01/29 02:46:04;;;;;;;5.47;2.65;;;;;;;;;;5133898;28;20050;-78
2024/01/29 02:48:30;;;;;;;3.67;3.15;;;;;;;;;;5134025;27;20130;-78
2024/01/29 02:50:56;;;;;;;3.28;2.55;;;;;;;;;;5137587;27;20484;-78
2024/01/29 02:53:22;;;;;;;6.38;2.50;;;;;;;;;;5119399;27;20521;-79
2024/01/29 02:55:48;;;;;;;5.13;2.67;;;;;;;;;;5119329;27;20039;-78
2024/01/29 02:58:14;;;;;;;4.38;2.22;;;;;;;;;;5119416;27;20057;-78
2024/01/29 03:00:40;;;;;;;5.90;2.70;;;;;;;;;;5102201;27;20088;-78
2024/01/29 03:03:06;;;;;;;4.32;2.63;;;;;;;;;;5137577;27;20054;-79
2024/01/29 03:05:32;;;;;;;3.05;2.70;;;;;;;;;;5118768;27;20047;-79
2024/01/29 03:07:58;;;;;;;5.20;2.28;;;;;;;;;;5099328;28;20395;-79
2024/01/29 03:10:24;;;;;;;3.25;2.60;;;;;;;;;;5098063;28;20105;-79
2024/01/29 03:12:52;;;;;;;4.00;2.75;;;;;;;;;;5116517;28;20044;-79
2024/01/29 03:15:18;;;;;;;4.15;2.13;;;;;;;;;;5098619;28;20100;-78
2024/01/29 03:17:44;;;;;;;4.03;2.83;;;;;;;;;;5098716;28;20454;-78
2024/01/29 03:20:11;;;;;;;3.63;2.38;;;;;;;;;;5116600;28;20394;-78
2024/01/29 03:22:37;;;;;;;5.63;3.17;;;;;;;;;;5098075;28;20040;-79
2024/01/29 03:25:03;;;;;;;3.42;2.53;;;;;;;;;;5116699;28;20070;-78
2024/01/29 03:27:29;;;;;;;4.32;2.75;;;;;;;;;;5098150;28;20511;-78
2024/01/29 03:29:55;;;;;;;2.92;2.38;;;;;;;;;;5116727;28;20100;-79
2024/01/29 03:32:21;;;;;;;3.40;2.78;;;;;;;;;;5098836;28;20139;-79
2024/01/29 03:34:47;;;;;;;3.25;2.75;;;;;;;;;;5098358;28;20468;-78
2024/01/29 03:37:13;;;;;;;5.50;2.92;;;;;;;;;;5115469;28;20097;-79
2024/01/29 03:39:39;;;;;;;4.93;3.17;;;;;;;;;;5098165;28;20044;-78
2024/01/29 03:42:06;;;;;;;4.00;3.17;;;;;;;;;;5081231;28;20535;-78
2024/01/29 03:44:32;;;;;;;2.92;2.63;;;;;;;;;;5098615;28;20364;-78
2024/01/29 03:46:58;;;;;;;5.85;3.53;;;;;;;;;;5097692;28;20047;-79
2024/01/29 03:49:24;;;;;;;3.55;3.17;;;;;;;;;;5098558;28;20078;-78
2024/01/29 03:51:50;;;;;;;4.07;3.67;;;;;;;;;;5097976;28;20050;-79
2024/01/29 03:54:16;;;;;;;3.85;3.35;;;;;;;;;;5115600;28;20047;-79
2024/01/29 03:56:42;;;;;;;3.90;3.17;;;;;;;;;;5080998;28;20097;-78
2024/01/29 03:59:10;;;;;;;3.67;2.70;;;;;;;;;;5097931;28;20043;-79
2024/01/29 04:01:37;;;;;;;4.07;2.88;;;;;;;;;;5096205;28;20064;-79
2024/01/29 04:04:03;;;;;;;6.03;2.85;;;;;;;;;;5097719;28;20063;-78
2024/01/29 04:06:29;;;;;;;3.25;2.90;;;;;;;;;;5080423;28;20387;-79
2024/01/29 04:08:55;;;;;;;5.05;3.17;;;;;;;;;;5097145;28;20365;-79
2024/01/29 04:11:21;;;;;;;3.60;3.30;;;;;;;;;;5097528;28;20127;-79
2024/01/29 04:13:47;;;;;;;3.13;2.50;;;;;;;;;;5097365;28;20054;-79
2024/01/29 04:16:14;;;;;;;5.65;2.70;;;;;;;;;;5097439;28;20044;-78
2024/01/29 04:18:40;;;;;;;3.38;2.97;;;;;;;;;;5115339;28;20083;-78
2024/01/29 04:21:07;;;;;;;3.95;2.80;;;;;;;;;;5097374;28;20074;-79
2024/01/29 04:23:34;;;;;;;2.97;2.67;;;;;;;;;;5097140;28;20487;-79
2024/01/29 04:26:00;;;;;;;3.70;1.98;;;;;;;;;;5115129;28;20089;-79
2024/01/29 04:28:26;;;;;;;4.03;3.08;;;;;;;;;;5115361;28;20097;-78
2024/01/29 04:30:52;;;;;;;3.42;2.53;;;;;;;;;;5097210;28;20054;-78
2024/01/29 04:33:18;;;;;;;5.45;2.63;;;;;;;;;;5097236;28;20059;-79
2024/01/29 04:35:44;;;;;;;2.80;2.40;;;;;;;;;;5080191;28;20120;-78
2024/01/29 04:38:10;;;;;;;5.80;3.13;;;;;;;;;;5096545;28;20112;-79
2024/01/29 04:40:39;;;;;;;3.95;3.55;;;;;;;;;;5115570;28;20087;-78
2024/01/29 04:43:05;;;;;;;4.38;2.90;;;;;;;;;;5096613;28;20476;-79
2024/01/29 04:45:31;;;;;;;3.22;2.70;;;;;;;;;;5114884;28;20045;-79
2024/01/29 04:47:57;;;;;;;3.70;2.70;;;;;;;;;;5096547;28;20054;-78
2024/01/29 04:50:23;;;;;;;4.30;3.30;;;;;;;;;;5096454;28;20126;-78
2024/01/29 04:52:49;;;;;;;4.88;2.97;;;;;;;;;;5113986;28;20055;-79
2024/01/29 04:55:16;;;;;;;3.63;3.28;;;;;;;;;;5079518;28;20052;-78
2024/01/29 04:57:42;;;;;;;4.07;3.67;;;;;;;;;;5097040;28;20036;-78
2024/01/29 05:00:11;;;;;;;4.10;3.38;;;;;;;;;;5096631;28;20097;-78
2024/01/29 05:02:37;;;;;;;3.38;3.15;;;;;;;;;;5096325;28;20126;-78
2024/01/29 05:05:03;;;;;;;4.65;3.45;;;;;;;;;;5114769;28;20047;-78
2024/01/29 05:07:29;;;;;;;6.28;3.30;;;;;;;;;;5095685;28;20040;-78
2024/01/29 05:09:56;;;;;;;6.53;3.92;;;;;;;;;;5079769;28;20047;-78
2024/01/29 05:12:22;;;;;;;4.80;3.65;;;;;;;;;;5095560;28;20048;-78
2024/01/29 05:14:48;;;;;;;4.53;3.22;;;;;;;;;;5114195;28;20055;-78
2024/01/29 05:17:14;;;;;;;3.78;2.83;;;;;;;;;;5114364;28;20040;-78
2024/01/29 05:19:44;;;;;;;3.42;2.80;;;;;;;;;;5114283;28;20055;-79
2024/01/29 05:22:10;;;;;;;5.18;3.58;;;;;;;;;;5096437;28;20047;-79
2024/01/29 05:24:37;;;;;;;3.78;3.42;;;;;;;;;;5096383;28;20043;-78
2024/01/29 05:27:03;;;;;;;4.90;3.35;;;;;;;;;;5096113;28;20051;-79
2024/01/29 05:29:29;;;;;;;4.70;4.25;;;;;;;;;;5096057;28;20044;-79
2024/01/29 05:31:55;;;;;;;5.95;4.13;;;;;;;;;;5114079;28;20059;-78
2024/01/29 05:34:21;;;;;;;3.42;3.17;;;;;;;;;;5096205;28;20376;-79
2024/01/29 05:36:47;;;;;;;5.03;2.90;;;;;;;;;;5114076;28;20048;-78
2024/01/29 05:39:13;;;;;;;5.43;3.70;;;;;;;;;;5095608;28;20043;-79
2024/01/29 05:41:39;;;;;;;3.58;3.15;;;;;;;;;;5114072;28;20047;-78
2024/01/29 05:44:05;;;;;;;4.75;3.58;;;;;;;;;;5095781;28;20051;-78
2024/01/29 05:46:31;;;;;;;5.00;4.47;;;;;;;;;;5079106;28;20495;-79
2024/01/29 05:48:58;;;;;;;4.32;3.25;;;;;;;;;;5114454;28;20044;-78
2024/01/29 05:51:24;;;;;;;4.20;3.20;;;;;;;;;;5079071;28;20048;-78
2024/01/29 05:53:50;;;;;;;3.70;3.25;;;;;;;;;;5113889;28;20090;-78
2024/01/29 05:56:16;;;;;;;5.68;3.55;;;;;;;;;;5079258;28;20044;-78
2024/01/29 05:58:45;;;;;;;3.58;3.28;;;;;;;;;;5096584;28;20138;-78
2024/01/29 06:01:11;;;;;;;5.88;3.60;;;;;;;;;;5095688;28;20129;-79
2024/01/29 06:03:37;;;;;;;4.13;3.35;;;;;;;;;;5095962;28;20055;-78
2024/01/29 06:06:03;;;;;;;3.47;3.20;;;;;;;;;;5122917;27;20042;-79
2024/01/29 06:08:29;;;;;;;3.58;3.28;;;;;;;;;;5144615;27;20071;-79
2024/01/29 06:10:55;;;;;;;6.15;4.25;;;;;;;;;;5124979;27;20126;-79
2024/01/29 06:13:23;;;;;;;4.30;4.00;;;;;;;;;;5126377;27;20043;-78
2024/01/29 06:15:50;;;;;;;4.50;3.78;;;;;;;;;;5151013;27;20062;-79
2024/01/29 06:18:16;;;;;;;4.72;4.15;;;;;;;;;;5140834;27;20043;-78
2024/01/29 06:20:42;;;;;;;4.05;3.75;;;;;;;;;;5134325;28;20047;-79
2024/01/29 06:23:12;;;;;;;6.85;4.25;;;;;;;;;;5134167;27;20046;-79
2024/01/29 06:25:38;;;;;;;4.50;4.10;;;;;;;;;;5119404;27;20049;-79
2024/01/29 06:28:05;;;;;;;7.00;3.90;;;;;;;;;;5120247;27;20043;-79
2024/01/29 06:30:33;;;;;;;4.85;4.15;;;;;;;;;;5138289;27;20047;-79
2024/01/29 06:32:59;;;;;;;6.80;3.80;;;;;;;;;;5120016;27;20046;-79
2024/01/29 06:35:25;;;;;;;4.85;4.30;;;;;;;;;;5120297;27;20046;-79
2024/01/29 06:37:51;;;;;;;4.28;3.15;;;;;;;;;;5119545;27;20470;-79
2024/01/29 06:40:17;;;;;;;4.38;3.40;;;;;;;;;;5138005;27;20051;-79
2024/01/29 06:42:43;;;;;;;5.93;4.40;;;;;;;;;;5137960;27;20043;-79
2024/01/29 06:45:10;;;;;;;5.22;4.38;;;;;;;;;;5119852;27;20088;-79
2024/01/29 06:47:36;;;;;;;8.32;4.78;;;;;;;;;;5137791;27;20031;-79
2024/01/29 06:50:02;;;;;;;5.05;4.22;;;;;;;;;;5119708;27;20122;-78
2024/01/29 06:52:28;;;;;;;4.82;4.07;;;;;;;;;;5137918;27;20038;-79
2024/01/29 06:54:54;;;;;;;4.07;3.67;;;;;;;;;;5138096;27;20043;-79
2024/01/29 06:57:20;;;;;;;4.60;4.20;;;;;;;;;;5137677;27;20059;-79
2024/01/29 06:59:46;;;;;;;6.35;4.15;;;;;;;;;;5137783;27;20043;-79
2024/01/29 07:02:12;;;;;;;7.95;4.25;;;;;;;;;;5119250;27;20047;-79
2024/01/29 07:04:38;;;;;;;4.40;4.00;;;;;;;;;;5119536;27;20047;-79
2024/01/29 07:07:05;;;;;;;4.07;3.72;;;;;;;;;;5118767;27;20038;-79
2024/01/29 07:09:34;;;;;;;5.63;4.47;;;;;;;;;;5119320;27;20050;-79
2024/01/29 07:12:00;;;;;;;4.50;3.80;;;;;;;;;;5120038;27;20509;-79
2024/01/29 07:14:26;;;;;;;6.03;4.38;;;;;;;;;;5119340;27;20155;-78
2024/01/29 07:16:52;;;;;;;4.53;4.13;;;;;;;;;;5137033;27;20083;-79
2024/01/29 07:19:23;;;;;;;5.22;4.68;;;;;;;;;;5119200;27;20511;-79
2024/01/29 07:21:50;;;;;;;5.20;4.25;;;;;;;;;;5119440;27;20048;-78
2024/01/29 07:24:17;;;;;;;5.57;3.92;;;;;;;;;;5137072;27;20047;-79
2024/01/29 07:26:43;;;;;;;7.22;4.05;;;;;;;;;;5118668;27;20035;-79
2024/01/29 07:29:09;;;;;;;5.38;3.63;;;;;;;;;;5118654;27;20402;-79
2024/01/29 07:31:35;;;;;;;5.38;4.55;;;;;;;;;;5118920;27;20375;-79
2024/01/29 07:34:01;;;;;;;4.43;3.92;;;;;;;;;;5118755;27;20043;-79
2024/01/29 07:36:27;;;;;;;5.28;4.20;;;;;;;;;;5118426;27;20126;-82
2024/01/29 07:38:53;;;;;;;4.97;4.05;;;;;;;;;;5118357;27;20039;-82
2024/01/29 07:41:19;;;;;;;4.32;3.95;;;;;;;;;;5085006;27;20142;-83
2024/01/29 07:43:46;;;;;;;4.93;4.28;;;;;;;;;;5084269;27;20491;-79
2024/01/29 07:46:12;;;;;;;5.45;4.15;;;;;;;;;;5118482;27;20121;-81
2024/01/29 07:48:38;;;;;;;5.40;4.15;;;;;;;;;;5101481;27;20069;-82
2024/01/29 07:51:07;;;;;;;5.60;4.13;;;;;;;;;;5118680;27;20035;-80
2024/01/29 07:53:34;;;;;;;7.57;4.65;;;;;;;;;;5118384;27;20039;-78
2024/01/29 07:56:00;;;;;;;5.45;4.57;;;;;;;;;;5118411;27;20069;-80
2024/01/29 07:58:26;;;;;;;5.30;4.40;;;;;;;;;;5118231;27;20051;-79
2024/01/29 08:00:52;;;;;;;4.68;4.00;;;;;;;;;;5118879;27;20063;-79
2024/01/29 08:03:18;;;;;;;4.45;4.05;;;;;;;;;;5101461;27;20047;-78
2024/01/29 08:05:44;;;;;;;5.90;4.32;;;;;;;;;;5136125;27;20055;-80
2024/01/29 08:08:10;;;;;;;6.35;4.18;;;;;;;;;;5117649;27;20062;-84
2024/01/29 08:10:36;;;;;;;6.15;5.53;;;;;;;;;;5118310;27;20043;-81
2024/01/29 08:13:03;;;;;;;5.68;4.63;;;;;;;;;;5101042;27;20050;-81
2024/01/29 08:15:29;;;;;;;5.47;4.95;;;;;;;;;;5117938;27;20039;-80
2024/01/29 08:17:55;;;;;;;5.45;4.03;;;;;;;;;;5136001;27;20480;-78
2024/01/29 08:20:24;;;;;;;4.60;4.20;;;;;;;;;;5100956;27;20051;-79
2024/01/29 08:22:50;;;;;;;5.28;4.78;;;;;;;;;;5135956;27;20073;-79
2024/01/29 08:25:16;;;;;;;5.03;4.53;;;;;;;;;;5135835;27;20043;-79
2024/01/29 08:27:42;;;;;;;5.03;4.53;;;;;;;;;;5100800;27;20051;-79
2024/01/29 08:30:09;;;;;;;6.88;4.95;;;;;;;;;;5117685;27;20082;-79
2024/01/29 08:32:35;;;;;;;5.97;4.18;;;;;;;;;;5117632;27;20055;-79
2024/01/29 08:35:01;;;;;;;5.18;4.53;;;;;;;;;;5117592;27;20471;-78
2024/01/29 08:37:27;;;;;;;5.60;4.18;;;;;;;;;;5100253;27;20059;-79
2024/01/29 08:39:53;;;;;;;7.80;5.07;;;;;;;;;;5117476;27;20107;-79
2024/01/29 08:42:19;;;;;;;5.28;4.22;;;;;;;;;;5117644;27;20039;-79
2024/01/29 08:44:46;;;;;;;5.47;4.40;;;;;;;;;;5117467;27;20051;-79
2024/01/29 08:47:12;;;;;;;4.07;3.78;;;;;;;;;;5134766;27;20049;-79
2024/01/29 08:49:38;;;;;;;4.18;3.78;;;;;;;;;;5135536;27;20387;-79
2024/01/29 08:52:04;;;;;;;4.65;4.22;;;;;;;;;;5117273;27;20082;-79
2024/01/29 08:54:30;;;;;;;4.88;4.47;;;;;;;;;;5135487;27;20094;-79
2024/01/29 08:56:56;;;;;;;4.38;3.92;;;;;;;;;;5135298;27;20083;-79
2024/01/29 08:59:22;;;;;;;4.88;4.38;;;;;;;;;;5135259;27;20054;-79
2024/01/29 09:01:48;;;;;;;5.43;4.35;;;;;;;;;;5116981;27;20115;-79
2024/01/29 09:04:15;;;;;;;6.25;4.47;;;;;;;;;;5134651;27;20058;-79
2024/01/29 09:06:41;;;;;;;4.97;4.25;;;;;;;;;;5135026;27;20039;-79
2024/01/29 09:09:07;;;;;;;7.10;4.40;;;;;;;;;;5134665;27;20039;-79
2024/01/29 09:11:33;;;;;;;5.07;4.53;;;;;;;;;;5117038;27;20486;-79
2024/01/29 09:13:59;;;;;;;5.15;4.50;;;;;;;;;;5116968;27;20051;-79
2024/01/29 09:16:25;;;;;;;7.40;4.32;;;;;;;;;;5116860;27;20047;-79
2024/01/29 09:18:51;;;;;;;6.13;4.80;;;;;;;;;;5099637;27;20086;-79
2024/01/29 09:21:17;;;;;;;4.85;4.45;;;;;;;;;;5099850;27;20094;-78
2024/01/29 09:23:43;;;;;;;7.90;4.65;;;;;;;;;;5116931;27;20039;-79
2024/01/29 09:26:09;;;;;;;6.32;4.78;;;;;;;;;;5116685;27;20372;-80
2024/01/29 09:28:37;;;;;;;5.60;5.07;;;;;;;;;;5134923;27;20135;-78
2024/01/29 09:31:04;;;;;;;5.43;4.93;;;;;;;;;;5099792;27;20051;-79
2024/01/29 09:33:30;;;;;;;6.72;4.55;;;;;;;;;;5116647;27;20054;-79
2024/01/29 09:35:56;;;;;;;4.90;4.28;;;;;;;;;;5116672;28;20051;-79
2024/01/29 09:38:22;;;;;;;4.88;4.47;;;;;;;;;;5116528;28;20399;-79
2024/01/29 09:40:48;;;;;;;5.03;4.50;;;;;;;;;;5116981;28;20066;-79
2024/01/29 09:43:20;;;;;;;4.53;4.13;;;;;;;;;;5116482;28;20051;-78
2024/01/29 09:45:46;;;;;;;6.15;4.85;;;;;;;;;;5117070;28;20384;-79
2024/01/29 09:48:15;;;;;;;6.88;4.78;;;;;;;;;;5099238;28;20487;-79
2024/01/29 09:50:43;;;;;;;5.60;4.93;;;;;;;;;;5116773;28;20068;-79
2024/01/29 09:53:11;;;;;;;6.30;4.95;;;;;;;;;;5116472;28;20040;-79
2024/01/29 09:55:37;;;;;;;5.28;4.75;;;;;;;;;;5134514;28;20046;-79
2024/01/29 09:58:04;;;;;;;6.35;5.15;;;;;;;;;;5135217;27;20046;-79
2024/01/29 10:00:30;;;;;;;6.10;5.30;;;;;;;;;;5138769;27;20047;-79
2024/01/29 10:02:59;;;;;;;6.15;5.40;;;;;;;;;;5120146;27;20063;-79
2024/01/29 10:05:27;;;;;;;6.03;5.53;;;;;;;;;;5120700;27;20043;-79
2024/01/29 10:07:56;;;;;;;5.75;5.25;;;;;;;;;;5138093;27;20047;-79
2024/01/29 10:10:22;;;;;;;6.45;5.25;;;;;;;;;;5120423;27;20089;-79
2024/01/29 10:12:48;;;;;;;6.50;5.05;;;;;;;;;;5120880;27;20390;-79
2024/01/29 10:15:14;;;;;;;5.85;5.32;;;;;;;;;;5103428;27;20051;-79
2024/01/29 10:17:40;;;;;;;5.43;4.93;;;;;;;;;;5120466;27;20071;-79
2024/01/29 10:20:18;;;;;;;6.28;5.60;;;;;;;;;;5120744;27;20122;-79
2024/01/29 10:22:44;;;;;;;7.22;5.43;;;;;;;;;;5120488;27;20414;-79
2024/01/29 10:25:11;;;;;;;6.93;5.40;;;;;;;;;;5103126;27;20100;-79
2024/01/29 10:27:38;;;;;;;8.52;5.30;;;;;;;;;;5102859;27;20128;-79
2024/01/29 10:30:04;;;;;;;6.40;5.65;;;;;;;;;;5103019;27;20054;-79
2024/01/29 10:32:30;;;;;;;7.72;6.30;;;;;;;;;;5102766;27;20051;-79
2024/01/29 10:34:56;;;;;;;7.03;5.75;;;;;;;;;;5120385;27;20087;-79
2024/01/29 10:37:23;;;;;;;5.57;5.13;;;;;;;;;;5120072;27;20455;-80
2024/01/29 10:39:49;;;;;;;8.32;6.13;;;;;;;;;;5120623;27;20039;-79
2024/01/29 10:42:17;;;;;;;8.98;6.15;;;;;;;;;;5119859;27;20061;-79
2024/01/29 10:44:44;;;;;;;8.57;5.82;;;;;;;;;;5137848;27;20039;-79
2024/01/29 10:47:13;;;;;;;6.68;5.45;;;;;;;;;;5137559;27;20039;-79
2024/01/29 10:49:43;;;;;;;9.13;6.00;;;;;;;;;;5119492;27;20070;-80
2024/01/29 10:52:10;;;;;;;6.85;6.15;;;;;;;;;;5119584;27;20239;-80
2024/01/29 10:54:36;;;;;;;6.50;5.90;;;;;;;;;;5138293;27;20043;-79
2024/01/29 10:57:03;;;;;;;7.97;7.18;;;;;;;;;;5137675;27;20039;-79
2024/01/29 10:59:29;;;;;;;7.28;6.63;;;;;;;;;;5120199;27;20422;-79
2024/01/29 11:01:56;;;;;;;7.10;6.47;;;;;;;;;;5119098;27;20058;-80
2024/01/29 11:04:22;;;;;;;7.03;6.40;;;;;;;;;;5137503;27;20055;-79
2024/01/29 11:06:59;;;;;;;8.10;7.43;;;;;;;;;;5101577;27;20036;-80
2024/01/29 11:09:27;;;;;;;9.23;7.25;;;;;;;;;;5111048;27;20198;-80
2024/01/29 11:11:54;;;;;;;10.50;6.93;;;;;;;;;;5118229;27;20121;-80
2024/01/29 11:14:21;;;;;;;11.48;6.78;;;;;;;;;;5119085;27;20058;-79
2024/01/29 11:16:48;;;;;;;7.25;6.65;;;;;;;;;;5119065;27;20042;-80
2024/01/29 11:19:15;;;;;;;8.52;7.22;;;;;;;;;;5137148;27;20039;-80
2024/01/29 11:21:48;;;;;;;7.10;6.50;;;;;;;;;;5137191;27;20055;-79
2024/01/29 11:24:14;;;;;;;8.50;7.70;;;;;;;;;;5137018;27;20051;-79
2024/01/29 11:26:40;;;;;;;7.93;7.13;;;;;;;;;;5119018;27;20050;-79
2024/01/29 11:29:07;;;;;;;8.90;7.32;;;;;;;;;;5118773;27;20039;-80
2024/01/29 11:31:48;;;;;;;8.65;7.35;;;;;;;;;;5118880;27;20047;-80
2024/01/29 11:34:14;;;;;;;8.88;7.72;;;;;;;;;;5118635;27;20096;-80
2024/01/29 11:36:40;;;;;;;8.48;7.07;;;;;;;;;;5101649;27;20039;-80
2024/01/29 11:39:08;;;;;;;8.02;7.32;;;;;;;;;;5101430;27;20050;-81
2024/01/29 11:41:35;;;;;;;8.18;7.38;;;;;;;;;;5118859;27;20043;-80
2024/01/29 11:44:02;;;;;;;8.07;7.25;;;;;;;;;;5136746;27;20047;-80
2024/01/29 11:46:28;;;;;;;7.65;6.97;;;;;;;;;;5101984;27;20091;-80
2024/01/29 11:48:58;;;;;;;7.57;6.88;;;;;;;;;;5118481;27;20043;-80
2024/01/29 11:51:29;;;;;;;8.40;7.45;;;;;;;;;;5118527;27;20386;-80
2024/01/29 11:53:55;;;;;;;7.50;6.82;;;;;;;;;;5121034;27;20177;-81
2024/01/29 11:56:21;;;;;;;9.00;8.13;;;;;;;;;;5118418;27;20054;-80
2024/01/29 11:59:01;;;;;;;10.10;8.05;;;;;;;;;;5118382;27;20070;-80
2024/01/29 12:01:28;;;;;;;8.70;7.80;;;;;;;;;;5117934;27;20176;-80
2024/01/29 12:03:54;;;;;;;8.43;7.63;;;;;;;;;;5118256;27;20047;-80
2024/01/29 12:06:20;;;;;;;10.27;8.23;;;;;;;;;;5136153;27;20043;-80
2024/01/29 12:08:47;;;;;;;8.70;7.93;;;;;;;;;;5117418;27;20051;-80
2024/01/29 12:11:15;;;;;;;9.63;8.63;;;;;;;;;;5118183;27;20131;-80
2024/01/29 12:13:41;;;;;;;12.52;8.50;;;;;;;;;;5118099;27;20054;-80
2024/01/29 12:16:08;;;;;;;9.20;8.40;;;;;;;;;;5117881;27;20039;-79
2024/01/29 12:18:35;;;;;;;10.52;8.27;;;;;;;;;;5101142;27;20096;-79
2024/01/29 12:21:01;;;;;;;9.35;8.45;;;;;;;;;;5117450;27;20051;-79
2024/01/29 12:23:28;;;;;;;8.68;7.78;;;;;;;;;;5135251;27;20086;-80
2024/01/29 12:25:55;;;;;;;9.07;8.38;;;;;;;;;;5117788;27;20530;-82
2024/01/29 12:28:21;;;;;;;9.10;8.20;;;;;;;;;;5117695;27;20085;-81
2024/01/29 12:30:55;;;;;;;10.52;8.35;;;;;;;;;;5135827;27;20057;-80
2024/01/29 12:33:27;;;;;;;10.17;8.83;;;;;;;;;;5100772;27;20047;-80
2024/01/29 12:35:54;;;;;;;9.07;8.20;;;;;;;;;;5101619;27;20074;-80
2024/01/29 12:38:22;;;;;;;9.90;8.90;;;;;;;;;;5097155;28;20043;-80
2024/01/29 12:40:48;;;;;;;9.10;8.23;;;;;;;;;;5114329;28;20590;-80
2024/01/29 12:43:27;;;;;;;11.57;8.52;;;;;;;;;;5090932;27;20522;-81
2024/01/29 12:46:02;;;;;;;9.35;8.35;;;;;;;;;;5090260;28;20169;-78
2024/01/29 12:48:28;;;;;;;10.13;8.48;;;;;;;;;;5073338;28;20052;-79
2024/01/29 12:50:54;;;;;;;10.10;8.85;;;;;;;;;;5124664;28;20507;-79
2024/01/29 12:53:21;;;;;;;10.18;8.75;;;;;;;;;;5124167;28;20040;-79
2024/01/29 12:55:47;;;;;;;9.73;8.88;;;;;;;;;;5090213;28;20097;-79
2024/01/29 12:58:13;;;;;;;9.90;9.00;;;;;;;;;;5089608;28;20044;-78
2024/01/29 13:00:43;;;;;;;12.80;9.13;;;;;;;;;;5089593;28;20044;-78
2024/01/29 13:03:09;;;;;;;10.32;8.70;;;;;;;;;;5073480;28;20051;-79
2024/01/29 13:05:36;;;;;;;10.40;9.15;;;;;;;;;;5089919;28;20044;-79
2024/01/29 13:08:02;;;;;;;10.63;9.32;;;;;;;;;;5089282;28;20101;-79
2024/01/29 13:10:30;;;;;;;10.52;9.52;;;;;;;;;;5089740;28;20396;-79
2024/01/29 13:12:56;;;;;;;10.43;9.43;;;;;;;;;;5089652;28;20055;-79
2024/01/29 13:15:22;;;;;;;10.27;9.27;;;;;;;;;;5089395;28;20481;-79
2024/01/29 13:17:48;;;;;;;10.65;9.57;;;;;;;;;;5123795;28;20131;-79
2024/01/29 13:20:15;;;;;;;10.75;9.75;;;;;;;;;;5089552;28;20040;-79
2024/01/29 13:22:41;;;;;;;10.27;9.38;;;;;;;;;;5089278;28;20040;-79
2024/01/29 13:25:08;;;;;;;13.13;10.68;;;;;;;;;;5089313;28;20079;-78
2024/01/29 13:27:34;;;;;;;11.00;10.00;;;;;;;;;;5089409;28;20492;-79
2024/01/29 13:30:01;;;;;;;12.15;10.52;;;;;;;;;;5089362;28;20370;-78
2024/01/29 13:32:27;;;;;;;11.30;9.35;;;;;;;;;;5089651;28;20059;-78
2024/01/29 13:34:53;;;;;;;10.95;9.85;;;;;;;;;;5089329;28;20048;-79
2024/01/29 13:37:19;;;;;;;12.20;10.93;;;;;;;;;;5088888;28;20051;-79
2024/01/29 13:39:46;;;;;;;12.88;10.25;;;;;;;;;;5087905;28;20127;-79
2024/01/29 13:42:12;;;;;;;13.27;10.45;;;;;;;;;;5088446;28;20071;-79
2024/01/29 13:44:38;;;;;;;11.57;10.38;;;;;;;;;;5089880;28;20058;-79
2024/01/29 13:47:04;;;;;;;11.25;10.23;;;;;;;;;;5088357;28;20052;-78
2024/01/29 13:49:31;;;;;;;11.68;10.50;;;;;;;;;;5089051;28;20122;-79
2024/01/29 13:51:57;;;;;;;12.02;10.07;;;;;;;;;;5072195;28;20051;-79
2024/01/29 13:54:23;;;;;;;15.13;11.07;;;;;;;;;;5060595;28;20135;-79
2024/01/29 13:56:49;;;;;;;11.70;10.52;;;;;;;;;;5075129;28;20132;-79
2024/01/29 13:59:15;;;;;;;13.15;11.65;;;;;;;;;;5075357;28;20052;-79
2024/01/29 14:01:41;;;;;;;12.70;11.40;;;;;;;;;;5075670;28;20048;-79
2024/01/29 14:04:08;;;;;;;12.38;11.13;;;;;;;;;;5058214;28;20049;-79
2024/01/29 14:06:34;;;;;;;11.80;10.48;;;;;;;;;;5075158;28;20063;-78
2024/01/29 14:09:00;;;;;;;12.00;10.90;;;;;;;;;;5075497;28;20048;-81
2024/01/29 14:11:26;;;;;;;15.82;10.88;;;;;;;;;;5075392;28;20090;-79
2024/01/29 14:13:52;;;;;;;13.68;11.65;;;;;;;;;;5075006;28;20048;-79
2024/01/29 14:16:20;;;;;;;12.05;10.95;;;;;;;;;;5074509;28;20539;-79
2024/01/29 14:18:46;;;;;;;11.63;10.52;;;;;;;;;;5108957;28;20052;-79
2024/01/29 14:21:12;;;;;;;11.95;10.93;;;;;;;;;;5074933;28;20052;-80
2024/01/29 14:23:40;;;;;;;12.25;11.07;;;;;;;;;;5058055;28;20442;-79
2024/01/29 14:26:06;;;;;;;12.65;11.32;;;;;;;;;;5074710;28;20412;-79
2024/01/29 14:28:32;;;;;;;12.98;10.32;;;;;;;;;;5074421;28;20374;-79
2024/01/29 14:30:58;;;;;;;12.38;11.18;;;;;;;;;;5074852;28;20044;-79
2024/01/29 14:33:24;;;;;;;12.23;10.88;;;;;;;;;;5091416;28;20052;-80
2024/01/29 14:35:56;;;;;;;11.98;10.73;;;;;;;;;;5108263;28;20136;-79
2024/01/29 14:38:25;;;;;;;12.10;10.77;;;;;;;;;;5074337;28;20469;-80